Time;durP1;ratioP1;P1;durP2;ratioP2;P2;SDS_P1;SDS_P2;PMS_P1;PMS_P2;Temp;Humidity;BMP_temperature;BMP_pressure;BME280_temperature;BME280_humidity;BME280_pressure;Samples;Min_cycle;Max_cycle;Signal;HPM_P1;HPM_P2
2023/04/28 00:02:01;;;;;;;5.63;4.00;;;;;;;11.09;75.21;100314.75;5069481;28;20693;-73
2023/04/28 00:04:28;;;;;;;8.30;4.13;;;;;;;11.04;75.22;100306.75;5068150;28;20233;-74
2023/04/28 00:06:54;;;;;;;6.60;4.27;;;;;;;11.03;75.02;100299.66;5070076;28;20714;-73
2023/04/28 00:09:21;;;;;;;4.90;3.90;;;;;;;11.03;74.46;100296.13;5069435;28;20198;-73
2023/04/28 00:11:47;;;;;;;6.57;3.83;;;;;;;11.03;73.76;100297.03;5049977;28;20253;-73
2023/04/28 00:14:14;;;;;;;6.40;4.00;;;;;;;11.03;74.25;100299.66;5069400;28;20199;-74
2023/04/28 00:16:41;;;;;;;6.37;4.23;;;;;;;11.04;74.72;100287.31;5069669;28;20686;-73
2023/04/28 00:19:07;;;;;;;7.60;4.30;;;;;;;11.10;75.11;100282.06;5065513;28;20646;-72
2023/04/28 00:21:33;;;;;;;6.73;4.10;;;;;;;11.08;75.19;100274.09;5069862;28;20196;-72
2023/04/28 00:24:00;;;;;;;7.97;3.93;;;;;;;11.11;74.42;100278.53;5064234;28;20228;-74
2023/04/28 00:26:26;;;;;;;5.70;3.97;;;;;;;11.09;75.51;100297.06;5069223;28;20229;-73
2023/04/28 00:28:52;;;;;;;5.63;4.03;;;;;;;11.11;75.98;100289.13;5050400;28;20205;-73
2023/04/28 00:31:19;;;;;;;6.03;3.63;;;;;;;11.06;75.77;100290.84;5067142;28;20651;-74
2023/04/28 00:33:45;;;;;;;7.07;3.97;;;;;;;10.99;76.48;100279.31;5064307;28;20197;-73
2023/04/28 00:36:11;;;;;;;5.47;3.83;;;;;;;10.91;77.55;100281.91;5068759;28;20254;-75
2023/04/28 00:38:38;;;;;;;5.67;3.40;;;;;;;10.86;77.28;100280.97;5069398;28;20194;-73
2023/04/28 00:41:05;;;;;;;7.83;4.10;;;;;;;10.89;76.59;100266.84;5048091;28;20641;-74
2023/04/28 00:43:43;;;;;;;7.63;3.87;;;;;;;10.96;75.76;100264.28;5067060;28;20217;-73
2023/04/28 00:46:13;;;;;;;5.97;3.80;;;;;;;11.03;75.52;100269.63;5069615;28;20245;-73
2023/04/28 00:48:39;;;;;;;6.67;4.10;;;;;;;11.01;76.16;100266.09;5069309;28;20198;-73
2023/04/28 00:51:06;;;;;;;5.27;3.60;;;;;;;11.05;75.49;100250.22;5060032;28;20203;-72
2023/04/28 00:53:33;;;;;;;5.10;3.73;;;;;;;11.10;74.79;100251.16;5068907;28;20194;-73
2023/04/28 00:56:00;;;;;;;5.93;3.60;;;;;;;11.13;74.26;100235.28;5067888;28;20213;-72
2023/04/28 00:58:28;;;;;;;7.63;3.60;;;;;;;11.15;74.06;100237.94;5068926;28;20202;-73
2023/04/28 01:01:02;;;;;;;6.00;3.83;;;;;;;11.21;73.99;100240.66;5065373;28;20197;-73
2023/04/28 01:03:29;;;;;;;5.40;3.90;;;;;;;11.20;76.09;100229.13;5051512;28;20574;-73
2023/04/28 01:05:56;;;;;;;6.93;4.10;;;;;;;11.14;76.43;100220.25;5067211;28;20186;-75
2023/04/28 01:08:23;;;;;;;5.27;3.50;;;;;;;11.04;76.60;100216.66;5064156;28;20201;-75
2023/04/28 01:10:49;;;;;;;9.03;4.47;;;;;;;10.95;79.85;100211.28;5065496;28;20198;-75
2023/04/28 01:13:16;;;;;;;5.43;3.93;;;;;;;10.92;82.36;100211.25;5058022;28;20210;-74
2023/04/28 01:15:42;;;;;;;8.77;4.10;;;;;;;10.87;87.69;100216.50;5069498;28;20225;-74
2023/04/28 01:18:08;;;;;;;6.03;4.40;;;;;;;10.80;90.27;100227.00;5067321;28;20214;-74
2023/04/28 01:20:35;;;;;;;5.83;4.27;;;;;;;10.71;91.18;100225.16;5064608;28;20202;-74
2023/04/28 01:23:01;;;;;;;7.40;4.60;;;;;;;10.63;92.20;100226.84;5067023;28;20249;-74
2023/04/28 01:25:30;;;;;;;5.73;4.40;;;;;;;10.59;93.40;100220.63;5070023;28;20265;-73
2023/04/28 01:27:56;;;;;;;8.83;5.07;;;;;;;10.60;95.75;100219.75;5076072;28;20214;-74
2023/04/28 01:30:22;;;;;;;11.57;4.73;;;;;;;10.71;96.40;100221.63;5074418;28;20217;-75
2023/04/28 01:32:49;;;;;;;6.77;4.43;;;;;;;10.64;96.20;100218.03;5075328;28;20619;-74
2023/04/28 01:35:15;;;;;;;9.10;4.60;;;;;;;10.64;97.03;100207.44;5073055;28;20236;-74
2023/04/28 01:37:44;;;;;;;6.63;4.80;;;;;;;10.59;97.34;100207.38;5075558;28;20635;-74
2023/04/28 01:40:11;;;;;;;9.80;4.83;;;;;;;10.65;97.83;100215.41;5070466;28;20203;-74
2023/04/28 01:42:38;;;;;;;11.27;5.20;;;;;;;10.60;96.48;100213.56;5055250;28;20215;-74
2023/04/28 01:45:05;;;;;;;8.30;5.23;;;;;;;10.56;97.01;100206.47;5074308;28;20256;-75
2023/04/28 01:47:31;;;;;;;6.07;4.93;;;;;;;10.51;97.75;100205.53;5075193;28;20561;-74
2023/04/28 01:49:57;;;;;;;7.40;4.63;;;;;;;10.53;96.54;100212.63;5071407;28;20201;-74
2023/04/28 01:52:24;;;;;;;7.43;5.07;;;;;;;10.58;99.39;100216.22;5057162;28;20266;-74
2023/04/28 01:54:50;;;;;;;7.60;4.97;;;;;;;10.63;100.00;100217.13;5079405;28;20201;-74
2023/04/28 01:57:16;;;;;;;10.50;5.23;;;;;;;10.51;99.72;100201.13;5062870;28;20287;-74
2023/04/28 01:59:44;;;;;;;8.27;5.10;;;;;;;10.51;100.00;100213.47;5053674;28;20208;-74
2023/04/28 02:02:11;;;;;;;6.90;4.53;;;;;;;10.47;100.00;100207.28;5067658;28;20692;-74
2023/04/28 02:04:38;;;;;;;7.77;4.73;;;;;;;10.56;100.00;100215.31;5056656;28;20196;-74
2023/04/28 02:07:05;;;;;;;8.10;5.27;;;;;;;10.49;100.00;100205.53;5074467;28;20851;-74
2023/04/28 02:09:32;;;;;;;10.47;5.47;;;;;;;10.41;100.00;100215.16;5072834;28;20208;-74
2023/04/28 02:12:01;;;;;;;8.77;5.37;;;;;;;10.35;100.00;100207.13;5068525;28;20716;-74
2023/04/28 02:14:30;;;;;;;6.70;5.37;;;;;;;10.29;100.00;100204.41;5064208;28;20223;-73
2023/04/28 02:16:57;;;;;;;8.20;5.07;;;;;;;10.21;100.00;100201.66;5071030;28;20557;-74
2023/04/28 02:19:24;;;;;;;7.63;5.67;;;;;;;10.18;100.00;100206.91;5074015;28;20630;-73
2023/04/28 02:21:50;;;;;;;6.83;5.30;;;;;;;10.14;100.00;100205.09;5079346;28;20585;-74
2023/04/28 02:24:16;;;;;;;9.33;5.40;;;;;;;10.19;100.00;100202.50;5063231;28;20242;-73
2023/04/28 02:26:43;;;;;;;8.47;5.20;;;;;;;10.26;100.00;100199.06;5078660;28;20586;-74
2023/04/28 02:29:10;;;;;;;7.33;5.10;;;;;;;10.36;100.00;100199.19;5072897;28;20203;-74
2023/04/28 02:31:36;;;;;;;7.57;5.27;;;;;;;10.40;100.00;100191.28;5070160;28;20231;-73
2023/04/28 02:34:03;;;;;;;11.63;4.83;;;;;;;10.38;100.00;100185.06;5077592;28;20192;-74
2023/04/28 02:36:30;;;;;;;6.97;5.27;;;;;;;10.33;100.00;100179.75;5080579;28;20599;-74
2023/04/28 02:38:57;;;;;;;7.57;5.60;;;;;;;10.28;100.00;100178.81;5071966;28;20224;-74
2023/04/28 02:41:23;;;;;;;9.20;5.73;;;;;;;10.27;100.00;100185.84;5076701;28;20198;-72
2023/04/28 02:43:49;;;;;;;11.10;5.90;;;;;;;10.28;100.00;100177.03;5077481;28;20194;-74
2023/04/28 02:46:16;;;;;;;7.50;5.80;;;;;;;10.24;100.00;100179.66;5055351;28;20215;-74
2023/04/28 02:48:42;;;;;;;8.33;5.40;;;;;;;10.19;100.00;100170.72;5074444;28;20746;-73
2023/04/28 02:51:09;;;;;;;8.17;5.27;;;;;;;10.16;100.00;100173.34;5075789;28;20223;-74
2023/04/28 02:53:35;;;;;;;6.90;5.00;;;;;;;10.15;100.00;100175.09;5076251;28;20249;-74
2023/04/28 02:56:03;;;;;;;9.33;5.97;;;;;;;10.19;100.00;100165.44;5074910;28;20230;-74
2023/04/28 02:58:29;;;;;;;7.37;5.20;;;;;;;10.21;100.00;100161.97;5075290;28;20474;-74
2023/04/28 03:00:56;;;;;;;8.33;5.60;;;;;;;10.22;100.00;100155.81;5076763;28;20221;-74
2023/04/28 03:03:22;;;;;;;9.80;6.17;;;;;;;10.28;100.00;100150.56;5079175;28;20289;-74
2023/04/28 03:05:49;;;;;;;6.30;4.83;;;;;;;10.26;100.00;100152.31;5078465;28;20584;-73
2023/04/28 03:08:15;;;;;;;10.60;5.23;;;;;;;10.30;100.00;100150.59;5077718;28;20219;-74
2023/04/28 03:10:41;;;;;;;7.37;5.50;;;;;;;10.47;100.00;100137.53;5077844;28;20257;-74
2023/04/28 03:13:08;;;;;;;8.23;5.23;;;;;;;10.43;100.00;100152.53;5056428;28;20199;-74
2023/04/28 03:15:34;;;;;;;7.33;5.17;;;;;;;10.46;100.00;100151.66;5078576;28;20233;-74
2023/04/28 03:18:00;;;;;;;7.93;5.10;;;;;;;10.41;100.00;100142.78;5073570;28;20569;-73
2023/04/28 03:20:27;;;;;;;8.30;5.30;;;;;;;10.44;100.00;100138.41;5070778;28;20194;-73
2023/04/28 03:22:53;;;;;;;7.37;5.07;;;;;;;10.34;100.00;100141.81;5074741;28;20238;-74
2023/04/28 03:25:20;;;;;;;9.73;5.20;;;;;;;10.30;100.00;100119.72;5077185;28;20230;-74
2023/04/28 03:27:46;;;;;;;11.00;5.50;;;;;;;10.29;100.00;100125.88;5072488;28;20222;-74
2023/04/28 03:30:12;;;;;;;11.83;5.83;;;;;;;10.29;100.00;100132.94;5075192;28;20227;-74
2023/04/28 03:32:39;;;;;;;9.27;6.00;;;;;;;10.28;100.00;100121.47;5074883;28;20200;-74
2023/04/28 03:35:08;;;;;;;9.43;5.70;;;;;;;10.31;100.00;100117.97;5065754;28;20267;-74
2023/04/28 03:37:35;;;;;;;7.23;5.50;;;;;;;10.33;100.00;100122.41;5072274;28;20255;-74
2023/04/28 03:40:02;;;;;;;8.23;5.40;;;;;;;10.35;100.00;100111.81;5052188;28;20251;-74
2023/04/28 03:42:29;;;;;;;7.60;5.03;;;;;;;10.38;100.00;100117.13;5073850;28;20631;-74
2023/04/28 03:44:55;;;;;;;7.73;5.47;;;;;;;10.39;100.00;100113.63;5069853;28;20238;-74
2023/04/28 03:47:21;;;;;;;10.30;5.53;;;;;;;10.41;100.00;100098.66;5076131;28;20723;-74
2023/04/28 03:49:48;;;;;;;10.23;6.20;;;;;;;10.45;100.00;100100.47;5073386;28;20765;-74
2023/04/28 03:52:14;;;;;;;8.93;6.10;;;;;;;10.49;100.00;100102.28;5074593;28;20201;-74
2023/04/28 03:54:41;;;;;;;8.07;6.33;;;;;;;10.62;100.00;100101.50;5068969;28;20229;-74
2023/04/28 03:57:07;;;;;;;9.43;5.80;;;;;;;10.81;100.00;100102.53;5071568;28;20212;-74
2023/04/28 03:59:33;;;;;;;9.23;6.47;;;;;;;10.85;100.00;100106.09;5074577;28;20199;-74
2023/04/28 04:02:00;;;;;;;9.33;5.83;;;;;;;10.82;100.00;100100.78;5069479;28;20229;-74
2023/04/28 04:04:26;;;;;;;10.20;6.37;;;;;;;10.74;100.00;100084.81;5078498;28;20200;-72
2023/04/28 04:06:53;;;;;;;8.30;5.83;;;;;;;10.67;100.00;100091.81;5072295;28;20211;-73
2023/04/28 04:09:19;;;;;;;9.30;5.87;;;;;;;10.61;100.00;100086.47;5079561;28;20552;-74
2023/04/28 04:11:46;;;;;;;10.87;6.37;;;;;;;10.59;100.00;100077.63;5075308;28;20223;-73
2023/04/28 04:14:12;;;;;;;14.47;6.90;;;;;;;10.65;100.00;100088.28;5067168;28;20240;-74
2023/04/28 04:16:40;;;;;;;12.13;6.60;;;;;;;10.64;100.00;100088.25;5072587;28;20219;-73
2023/04/28 04:19:06;;;;;;;11.57;7.57;;;;;;;10.70;100.00;100079.47;5073935;28;20656;-74
2023/04/28 04:21:32;;;;;;;8.60;6.57;;;;;;;10.64;100.00;100086.50;5078596;28;20220;-73
2023/04/28 04:23:58;;;;;;;12.07;6.97;;;;;;;10.67;100.00;100075.03;5068776;28;20227;-73
2023/04/28 04:26:25;;;;;;;10.27;6.07;;;;;;;10.66;100.00;100084.75;5098631;22;20769;-73
2023/04/28 04:28:51;;;;;;;12.37;6.57;;;;;;;10.67;100.00;100077.69;5046549;28;20225;-77
2023/04/28 04:31:21;;;;;;;14.13;7.97;;;;;;;10.71;100.00;100070.66;5051866;28;20593;-77
2023/04/28 04:33:48;;;;;;;16.40;7.57;;;;;;;10.75;100.00;100075.09;5051047;28;20285;-77
2023/04/28 04:36:14;;;;;;;12.33;7.40;;;;;;;10.76;100.00;100067.16;5043182;28;20207;-80
2023/04/28 04:38:40;;;;;;;10.20;6.93;;;;;;;10.80;100.00;100057.47;5068970;28;20218;-80
2023/04/28 04:41:07;;;;;;;13.37;6.80;;;;;;;10.99;99.79;100080.59;5069519;28;20666;-80
2023/04/28 04:43:33;;;;;;;9.87;6.60;;;;;;;10.81;99.36;100068.13;5067112;28;20677;-78
2023/04/28 04:45:59;;;;;;;8.87;6.37;;;;;;;10.85;99.50;100079.63;5059335;28;20603;-79
2023/04/28 04:48:26;;;;;;;9.17;6.70;;;;;;;10.70;100.00;100082.13;5068568;28;20237;-79
2023/04/28 04:50:52;;;;;;;9.93;6.83;;;;;;;10.57;100.00;100074.09;5067184;28;20197;-82
2023/04/28 04:53:19;;;;;;;10.07;6.33;;;;;;;10.44;100.00;100082.81;5057235;28;20201;-79
2023/04/28 04:55:45;;;;;;;9.70;7.03;;;;;;;10.36;100.00;100103.91;5062268;28;20205;-78
2023/04/28 04:58:11;;;;;;;12.53;8.17;;;;;;;10.29;100.00;100096.78;5062013;28;20256;-79
2023/04/28 05:00:38;;;;;;;10.67;6.53;;;;;;;10.27;100.00;100111.75;5068115;28;20197;-81
2023/04/28 05:03:05;;;;;;;12.43;6.97;;;;;;;10.24;100.00;100102.91;5071877;28;20201;-79
2023/04/28 05:05:31;;;;;;;13.03;7.40;;;;;;;10.29;100.00;100096.78;5068888;28;20198;-79
2023/04/28 05:07:58;;;;;;;14.07;6.97;;;;;;;10.31;100.00;100102.06;5063051;28;20228;-80
2023/04/28 05:10:24;;;;;;;11.80;6.53;;;;;;;10.24;100.00;100106.44;5070131;28;20197;-79
2023/04/28 05:12:51;;;;;;;12.20;7.57;;;;;;;10.21;100.00;100102.88;5072238;28;20197;-79
2023/04/28 05:15:17;;;;;;;11.43;8.30;;;;;;;10.33;100.00;100102.97;5067067;28;20197;-77
2023/04/28 05:17:44;;;;;;;14.63;7.10;;;;;;;10.27;100.00;100105.56;5070936;28;20594;-77
2023/04/28 05:20:10;;;;;;;14.67;7.70;;;;;;;10.20;100.00;100101.97;5072677;28;20209;-79
2023/04/28 05:22:38;;;;;;;12.13;7.40;;;;;;;10.10;100.00;100107.13;5068580;28;20199;-77
2023/04/28 05:25:05;;;;;;;12.10;7.90;;;;;;;10.11;100.00;100104.50;5070124;28;20195;-76
2023/04/28 05:27:32;;;;;;;14.17;8.20;;;;;;;10.19;100.00;100096.63;5049495;28;20227;-75
2023/04/28 05:29:58;;;;;;;13.93;8.80;;;;;;;10.20;100.00;100101.97;5068665;28;20216;-74
2023/04/28 05:32:25;;;;;;;14.37;8.07;;;;;;;10.20;100.00;100098.41;5072169;28;20224;-76
2023/04/28 05:34:51;;;;;;;15.50;8.50;;;;;;;10.25;100.00;100112.59;5059790;28;20199;-76
2023/04/28 05:37:17;;;;;;;16.10;9.07;;;;;;;10.16;100.00;100099.25;5072341;28;20273;-74
2023/04/28 05:39:44;;;;;;;13.60;8.90;;;;;;;10.16;100.00;100118.66;5070792;28;20205;-74
2023/04/28 05:42:10;;;;;;;18.73;8.63;;;;;;;10.03;100.00;100115.00;5067238;28;20199;-73
2023/04/28 05:44:37;;;;;;;15.87;8.77;;;;;;;10.16;100.00;100116.03;5068944;28;20417;-73
2023/04/28 05:47:03;;;;;;;14.30;8.80;;;;;;;10.14;100.00;100111.59;5046259;28;20267;-73
2023/04/28 05:49:29;;;;;;;12.30;8.87;;;;;;;10.09;100.00;100108.00;5057503;28;20212;-75
2023/04/28 05:51:56;;;;;;;12.80;9.00;;;;;;;10.14;100.00;100112.47;5063492;28;20201;-75
2023/04/28 05:54:22;;;;;;;13.20;9.93;;;;;;;10.17;100.00;100088.69;5070978;28;20240;-74
2023/04/28 05:56:48;;;;;;;13.83;8.70;;;;;;;10.15;100.00;100110.72;5062765;28;20265;-74
2023/04/28 05:59:15;;;;;;;14.63;9.57;;;;;;;10.11;100.00;100106.25;5062646;28;20226;-70
2023/04/28 06:01:42;;;;;;;15.80;9.27;;;;;;;10.04;100.00;100100.03;5067971;28;20670;-75
2023/04/28 06:04:08;;;;;;;13.90;9.07;;;;;;;9.98;100.00;100094.63;5064635;28;20199;-71
2023/04/28 06:06:35;;;;;;;14.40;9.53;;;;;;;10.00;100.00;100100.84;5064831;28;20272;-71
2023/04/28 06:09:02;;;;;;;17.07;8.63;;;;;;;10.08;100.00;100090.34;5070171;28;20218;-72
2023/04/28 06:11:28;;;;;;;14.47;9.13;;;;;;;9.97;100.00;100080.53;5046460;28;20226;-72
2023/04/28 06:13:55;;;;;;;13.03;9.13;;;;;;;9.97;100.00;100106.09;5067996;28;20482;-72
2023/04/28 06:16:22;;;;;;;12.33;8.50;;;;;;;9.91;100.00;100098.09;5069892;28;20667;-73
2023/04/28 06:18:48;;;;;;;14.00;8.53;;;;;;;10.09;100.00;100115.94;5052009;28;20274;-73
2023/04/28 06:21:15;;;;;;;11.57;8.60;;;;;;;10.11;100.00;100112.44;5041460;28;20196;-73
2023/04/28 06:23:42;;;;;;;16.93;9.73;;;;;;;10.17;100.00;100112.50;5065192;28;20243;-73
2023/04/28 06:26:08;;;;;;;13.00;8.20;;;;;;;10.16;100.00;100116.03;5076214;28;20605;-73
2023/04/28 06:28:35;;;;;;;14.77;9.03;;;;;;;10.23;100.00;100117.00;5078620;28;20258;-73
2023/04/28 06:31:01;;;;;;;12.73;9.07;;;;;;;10.21;100.00;100121.41;5075187;28;20255;-73
2023/04/28 06:33:27;;;;;;;15.37;9.17;;;;;;;10.21;100.00;100127.56;5076251;28;20567;-73
2023/04/28 06:35:54;;;;;;;12.87;8.87;;;;;;;10.20;100.00;100119.59;5061507;28;20226;-72
2023/04/28 06:38:20;;;;;;;12.57;8.50;;;;;;;10.24;100.00;100110.84;5064717;28;20281;-73
2023/04/28 06:40:46;;;;;;;13.63;8.50;;;;;;;10.28;100.00;100116.16;5067196;28;20233;-73
2023/04/28 06:43:13;;;;;;;18.70;9.53;;;;;;;10.29;100.00;100114.41;5063591;28;20232;-72
2023/04/28 06:45:40;;;;;;;15.43;9.00;;;;;;;10.24;100.00;100109.06;5071425;28;20196;-73
2023/04/28 06:48:07;;;;;;;14.70;8.97;;;;;;;10.24;100.00;100105.53;5065867;28;20249;-72
2023/04/28 06:50:33;;;;;;;15.17;10.10;;;;;;;10.28;100.00;100102.94;5065138;28;20191;-74
2023/04/28 06:53:00;;;;;;;14.23;9.00;;;;;;;10.29;100.00;100099.41;5068305;28;20207;-73
2023/04/28 06:55:26;;;;;;;20.37;10.60;;;;;;;10.35;100.00;100101.22;5064563;28;20199;-73
2023/04/28 06:57:52;;;;;;;15.87;10.53;;;;;;;10.38;100.00;100087.13;5060708;28;20218;-72
2023/04/28 07:00:19;;;;;;;16.90;10.60;;;;;;;10.48;100.00;100084.63;5069784;28;20194;-72
2023/04/28 07:02:46;;;;;;;13.93;9.83;;;;;;;10.56;100.00;100084.66;5064291;28;20200;-72
2023/04/28 07:05:13;;;;;;;16.40;10.53;;;;;;;10.49;100.00;100085.50;5068360;28;20676;-73
2023/04/28 07:07:41;;;;;;;13.77;9.77;;;;;;;10.55;100.00;100089.09;5062263;28;20235;-73
2023/04/28 07:10:09;;;;;;;14.93;9.53;;;;;;;10.59;100.00;100090.88;5068850;28;20664;-75
2023/04/28 07:12:36;;;;;;;15.50;10.13;;;;;;;10.64;100.00;100083.84;5063513;28;20566;-71
2023/04/28 07:15:02;;;;;;;16.33;10.00;;;;;;;10.64;100.00;100072.38;5062547;28;20234;-72
2023/04/28 07:17:29;;;;;;;14.63;10.20;;;;;;;10.71;100.00;100087.44;5069064;28;20219;-73
2023/04/28 07:19:55;;;;;;;13.77;9.93;;;;;;;10.68;100.00;100083.00;5070432;28;20203;-73
2023/04/28 07:22:21;;;;;;;17.23;9.70;;;;;;;10.73;100.00;100075.09;5064619;28;20195;-70
2023/04/28 07:24:48;;;;;;;18.33;10.27;;;;;;;10.79;100.00;100088.38;5061676;28;20662;-71
2023/04/28 07:27:14;;;;;;;16.10;10.83;;;;;;;10.85;100.00;100087.56;5068132;28;20660;-73
2023/04/28 07:29:43;;;;;;;15.63;10.90;;;;;;;10.91;100.00;100077.88;5065522;28;20660;-73
2023/04/28 07:32:09;;;;;;;20.23;10.67;;;;;;;11.08;100.00;100080.63;5069059;28;20200;-72
2023/04/28 07:34:36;;;;;;;15.67;10.00;;;;;;;10.92;100.00;100074.38;5062720;28;20191;-76
2023/04/28 07:37:03;;;;;;;13.00;10.00;;;;;;;10.99;100.00;100081.47;5068701;28;20342;-74
2023/04/28 07:39:31;;;;;;;16.47;11.17;;;;;;;11.01;100.00;100084.13;5065455;28;20248;-77
2023/04/28 07:41:58;;;;;;;16.77;10.93;;;;;;;10.99;100.00;100084.13;5064458;28;20198;-79
2023/04/28 07:44:24;;;;;;;18.10;11.20;;;;;;;11.11;100.00;100088.59;5062168;28;20198;-78
2023/04/28 07:46:52;;;;;;;17.23;11.13;;;;;;;11.19;100.00;100086.00;5061131;28;20218;-80
2023/04/28 07:49:18;;;;;;;15.83;11.20;;;;;;;11.30;100.00;100087.84;5066451;28;20575;-78
2023/04/28 07:51:45;;;;;;;17.13;10.63;;;;;;;11.28;100.00;100099.31;5065752;28;20209;-81
2023/04/28 07:54:11;;;;;;;18.73;10.30;;;;;;;11.24;100.00;100090.47;5068374;28;20221;-78
2023/04/28 07:56:38;;;;;;;15.60;10.27;;;;;;;11.23;100.00;100085.16;5067059;28;20737;-78
2023/04/28 07:59:04;;;;;;;15.87;11.27;;;;;;;11.33;100.00;100099.34;5066328;28;20224;-78
2023/04/28 08:01:31;;;;;;;17.80;10.47;;;;;;;11.52;100.00;100102.09;5067492;28;20616;-79
2023/04/28 08:03:57;;;;;;;15.40;10.43;;;;;;;11.71;100.00;100110.16;5061261;28;20271;-81
2023/04/28 08:06:24;;;;;;;14.90;9.53;;;;;;;11.78;100.00;100104.91;5066273;28;20293;-80
2023/04/28 08:08:50;;;;;;;15.10;10.53;;;;;;;11.86;100.00;100107.56;5058246;28;20236;-74
2023/04/28 08:11:17;;;;;;;14.73;10.73;;;;;;;11.81;100.00;100107.56;5069840;28;20213;-73
2023/04/28 08:13:43;;;;;;;13.80;9.60;;;;;;;11.70;100.00;100106.63;5047103;28;20214;-74
2023/04/28 08:16:10;;;;;;;15.63;9.97;;;;;;;11.67;100.00;100106.59;5051130;28;20290;-74
2023/04/28 08:18:38;;;;;;;14.87;10.10;;;;;;;11.59;100.00;100114.50;5067721;28;20234;-75
2023/04/28 08:21:05;;;;;;;16.93;10.23;;;;;;;11.66;100.00;100107.47;5051805;28;20206;-75
2023/04/28 08:23:31;;;;;;;14.83;9.77;;;;;;;11.67;100.00;100117.22;5064129;28;20228;-73
2023/04/28 08:25:57;;;;;;;15.33;10.30;;;;;;;11.83;100.00;100111.09;5069951;28;20202;-74
2023/04/28 08:28:24;;;;;;;17.17;10.73;;;;;;;11.92;100.00;100105.81;5067560;28;20645;-73
2023/04/28 08:30:51;;;;;;;16.93;11.37;;;;;;;12.03;100.00;100116.50;5065416;28;20304;-73
2023/04/28 08:33:17;;;;;;;18.00;11.43;;;;;;;12.01;100.00;100105.00;5064521;28;20332;-73
2023/04/28 08:35:44;;;;;;;16.90;11.60;;;;;;;12.19;100.00;100098.84;5037418;28;20200;-72
2023/04/28 08:38:13;;;;;;;18.10;12.53;;;;;;;12.34;100.00;100106.81;5068687;28;20221;-73
2023/04/28 08:40:41;;;;;;;19.77;13.43;;;;;;;12.49;100.00;100105.97;5067543;28;20193;-72
2023/04/28 08:43:09;;;;;;;21.83;12.90;;;;;;;12.61;100.00;100111.28;5068699;28;20203;-73
2023/04/28 08:45:41;;;;;;;19.07;13.97;;;;;;;12.72;100.00;100108.63;5050834;28;20252;-72
2023/04/28 08:48:19;;;;;;;19.73;13.10;;;;;;;12.85;100.00;100110.41;5056938;28;20237;-72
2023/04/28 08:50:49;;;;;;;21.47;14.03;;;;;;;13.01;100.00;100113.94;5057468;28;20222;-73
2023/04/28 08:53:26;;;;;;;22.70;14.47;;;;;;;13.32;100.00;100118.38;5062474;28;20248;-74
2023/04/28 08:55:58;;;;;;;18.70;13.80;;;;;;;13.63;100.00;100119.16;5069168;28;20679;-70
2023/04/28 08:58:26;;;;;;;21.07;13.13;;;;;;;13.85;97.59;100117.28;5044053;28;20222;-73
2023/04/28 09:00:53;;;;;;;18.47;12.37;;;;;;;13.88;96.80;100114.63;5066712;28;20308;-73
2023/04/28 09:03:20;;;;;;;17.87;12.17;;;;;;;14.01;95.88;100112.81;5057427;28;20201;-73
2023/04/28 09:05:47;;;;;;;17.73;13.13;;;;;;;14.00;95.34;100119.88;5068088;28;20202;-72
2023/04/28 09:08:14;;;;;;;21.07;13.43;;;;;;;14.13;94.04;100119.84;5064510;28;20206;-74
2023/04/28 09:10:40;;;;;;;20.13;13.97;;;;;;;14.50;93.73;100105.44;5056674;28;20202;-75
2023/04/28 09:13:07;;;;;;;21.20;13.33;;;;;;;14.58;91.64;100116.91;5060696;28;20409;-73
2023/04/28 09:15:36;;;;;;;19.70;13.70;;;;;;;14.88;91.79;100114.91;5063459;28;20548;-73
2023/04/28 09:18:05;;;;;;;21.60;14.77;;;;;;;15.09;90.87;100111.16;5065793;28;20275;-71
2023/04/28 09:20:33;;;;;;;19.67;13.50;;;;;;;15.45;91.14;100108.13;5047721;28;20261;-73
2023/04/28 09:23:18;;;;;;;22.77;15.33;;;;;;;15.64;90.16;100108.84;5065539;28;20874;-73
2023/04/28 09:25:58;;;;;;;21.10;14.57;;;;;;;15.88;87.72;100111.19;5066009;28;20195;-73
2023/04/28 09:28:25;;;;;;;44.73;16.63;;;;;;;16.05;87.14;100112.78;5060100;28;20234;-73
2023/04/28 09:30:51;;;;;;;28.37;15.20;;;;;;;16.33;83.81;100116.81;5062983;28;20199;-72
2023/04/28 09:33:18;;;;;;;24.43;14.20;;;;;;;16.58;84.93;100117.34;5041311;28;20523;-72
2023/04/28 09:35:46;;;;;;;19.07;13.67;;;;;;;16.87;83.03;100117.81;5067854;28;20203;-73
2023/04/28 09:38:13;;;;;;;21.50;13.07;;;;;;;17.01;82.66;100127.38;5055860;28;20478;-72
2023/04/28 09:41:02;;;;;;;22.07;15.20;;;;;;;16.80;81.34;100121.47;5064897;28;20608;-71
2023/04/28 09:43:31;;;;;;;24.20;15.37;;;;;;;16.53;82.77;100122.78;5057522;28;20201;-73
2023/04/28 09:46:03;;;;;;;20.03;14.60;;;;;;;16.37;83.10;100120.31;5071133;28;20733;-71
2023/04/28 09:48:37;;;;;;;22.97;14.63;;;;;;;16.23;84.55;100112.50;5054469;28;20218;-72
2023/04/28 09:51:05;;;;;;;20.10;12.97;;;;;;;16.37;85.49;100101.63;5050488;28;20684;-73
2023/04/28 09:53:32;;;;;;;17.97;12.20;;;;;;;16.91;81.28;100099.91;5056459;28;20248;-73
2023/04/28 09:56:01;;;;;;;17.50;12.47;;;;;;;16.66;81.00;100099.41;5064991;28;20203;-72
2023/04/28 09:58:29;;;;;;;18.67;12.57;;;;;;;17.45;77.22;100099.81;5064747;28;20223;-71
2023/04/28 10:00:57;;;;;;;16.10;11.70;;;;;;;17.49;76.82;100114.91;5065859;28;20202;-72
2023/04/28 10:03:29;;;;;;;17.30;12.73;;;;;;;17.79;75.44;100111.66;5068015;28;20248;-72
2023/04/28 10:06:00;;;;;;;16.47;12.07;;;;;;;17.61;76.05;100108.41;5041191;28;20205;-72
2023/04/28 10:08:27;;;;;;;16.23;11.97;;;;;;;18.03;74.22;100109.41;5061557;28;20221;-73
2023/04/28 10:10:54;;;;;;;14.80;11.20;;;;;;;18.11;75.16;100100.28;5051285;28;20654;-73
2023/04/28 10:13:22;;;;;;;15.17;11.50;;;;;;;18.84;73.36;100104.88;5066114;28;20689;-72
2023/04/28 10:15:50;;;;;;;15.73;11.10;;;;;;;19.75;69.31;100098.88;5063260;28;20225;-72
2023/04/28 10:18:17;;;;;;;15.70;11.27;;;;;;;19.87;67.12;100102.06;5067456;28;20211;-72
2023/04/28 10:20:52;;;;;;;17.42;11.30;;;;;;;19.73;68.19;100098.91;5064149;28;20240;-73
2023/04/28 10:23:36;;;;;;;40.15;13.38;;;;;;;19.47;68.10;100096.91;5046137;28;20678;-70
2023/04/28 10:26:09;;;;;;;77.95;19.10;;;;;;;19.53;69.31;100088.72;5060798;28;20682;-73
2023/04/28 10:28:36;;;;;;;22.88;13.00;;;;;;;19.55;69.53;100088.66;5068754;28;20244;-72
2023/04/28 10:31:14;;;;;;;17.60;11.45;;;;;;;19.76;69.46;100084.50;5051485;28;20248;-73
2023/04/28 10:33:41;;;;;;;16.88;12.60;;;;;;;19.59;68.89;100083.16;5062240;28;20194;-71
2023/04/28 10:36:08;;;;;;;17.70;12.60;;;;;;;19.71;68.34;100080.16;5061795;28;20202;-73
2023/04/28 10:38:35;;;;;;;18.60;13.73;;;;;;;19.62;68.94;100088.47;5063713;28;20309;-72
2023/04/28 10:41:02;;;;;;;22.30;15.73;;;;;;;18.84;71.72;100097.69;5041815;28;20210;-74
2023/04/28 10:43:31;;;;;;;17.83;13.60;;;;;;;18.78;72.98;100096.03;5065283;28;20210;-74
2023/04/28 10:46:00;;;;;;;17.10;13.10;;;;;;;19.02;72.13;100102.59;5068194;28;20654;-71
2023/04/28 10:48:33;;;;;;;22.27;13.87;;;;;;;19.17;71.03;100101.28;5062129;28;20668;-70
2023/04/28 10:51:03;;;;;;;19.47;14.37;;;;;;;19.09;70.99;100089.88;5065258;28;20190;-72
2023/04/28 10:53:44;;;;;;;20.87;14.37;;;;;;;18.69;72.66;100101.63;5067412;28;20278;-73
2023/04/28 10:56:18;;;;;;;20.57;14.80;;;;;;;18.54;73.14;100096.59;5066919;28;20289;-71
2023/04/28 10:58:46;;;;;;;19.53;14.27;;;;;;;18.31;73.97;100096.25;5067567;28;20218;-73
2023/04/28 11:01:21;;;;;;;21.73;14.50;;;;;;;18.30;75.25;100092.69;5068559;28;20702;-72
2023/04/28 11:04:12;;;;;;;18.70;14.43;;;;;;;18.47;74.57;100081.59;5046309;28;20203;-70
2023/04/28 11:06:41;;;;;;;20.63;15.10;;;;;;;18.44;75.27;100081.66;5043168;28;20717;-69
2023/04/28 11:09:13;;;;;;;20.73;15.80;;;;;;;18.79;74.70;100084.38;5052228;28;20194;-72
2023/04/28 11:12:00;;;;;;;16.30;13.50;;;;;;;18.92;73.76;100094.81;5060137;28;20235;-72
2023/04/28 11:14:34;;;;;;;19.20;13.70;;;;;;;19.21;73.58;100085.97;5062251;28;20285;-71